Time;durP1;ratioP1;P1;durP2;ratioP2;P2;SDS_P1;SDS_P2;PMS_P1;PMS_P2;Temp;Humidity;BMP_temperature;BMP_pressure;BME280_temperature;BME280_humidity;BME280_pressure;Samples;Min_cycle;Max_cycle;Signal;HPM_P1;HPM_P2
2023/05/07 00:01:00;;;;;;;;;;;;;;;19.59;100.00;97871.81;5077280;28;20023;-73
2023/05/07 00:03:27;;;;;;;;;;;;;;;19.58;100.00;97873.72;5080193;28;19924;-72
2023/05/07 00:05:53;;;;;;;;;;;;;;;19.59;100.00;97871.81;5071000;28;19978;-72
2023/05/07 00:08:21;;;;;;;;;;;;;;;19.57;100.00;97871.31;5076786;28;19944;-73
2023/05/07 00:10:47;;;;;;;;;;;;;;;19.56;100.00;97877.88;5076839;28;19955;-74
2023/05/07 00:13:14;;;;;;;;;;;;;;;19.55;100.00;97873.56;5079408;28;19936;-71
2023/05/07 00:15:40;;;;;;;;;;;;;;;19.53;100.00;97873.13;5080316;28;19936;-74
2023/05/07 00:18:07;;;;;;;;;;;;;;;19.48;100.00;97873.25;5077507;28;19947;-73
2023/05/07 00:20:33;;;;;;;;;;;;;;;19.47;100.00;97883.28;5076747;28;20283;-72
2023/05/07 00:22:59;;;;;;;;;;;;;;;19.42;100.00;97878.06;5077081;28;20027;-71
2023/05/07 00:25:27;;;;;;;;;;;;;;;19.39;100.00;97876.78;5081260;28;19924;-71
2023/05/07 00:27:53;;;;;;;;;;;;;;;19.40;100.00;97875.66;5084027;28;19950;-71
2023/05/07 00:30:20;;;;;;;;;;;;;;;19.39;100.00;97874.09;5079381;28;19992;-71
2023/05/07 00:32:48;;;;;;;;;;;;;;;19.39;100.00;97874.09;5080408;28;19935;-72
2023/05/07 00:35:15;;;;;;;;;;;;;;;19.37;100.00;97878.97;5080422;28;19925;-71
2023/05/07 00:37:41;;;;;;;;;;;;;;;19.36;100.00;97873.91;5078175;28;19924;-72
2023/05/07 00:40:08;;;;;;;;;;;;;;;19.32;100.00;97876.44;5082186;28;19995;-71
2023/05/07 00:42:36;;;;;;;;;;;;;;;19.29;100.00;97879.78;5080403;28;20023;-72
2023/05/07 00:45:03;;;;;;;;;;;;;;;19.30;100.00;97877.88;5081360;28;19925;-72
2023/05/07 00:47:29;;;;;;;;;;;;;;;19.31;100.00;97874.84;5084453;28;19924;-75
2023/05/07 00:49:55;;;;;;;;;;;;;;;19.27;100.00;97875.81;5083604;28;20046;-73
2023/05/07 00:52:24;;;;;;;;;;;;;;;19.20;100.00;97879.00;5081783;28;19955;-73
2023/05/07 00:54:51;;;;;;;;;;;;;;;19.02;100.00;97877.41;5082053;28;19960;-75
2023/05/07 00:57:18;;;;;;;;;;;;;;;18.83;100.00;97879.63;5084592;28;20440;-73
2023/05/07 00:59:45;;;;;;;;;;;;;;;18.60;100.00;97887.06;5085963;28;19947;-74
2023/05/07 01:02:12;;;;;;;;;;;;;;;18.62;100.00;97884.84;5082573;28;19984;-74
2023/05/07 01:04:38;;;;;;;;;;;;;;;18.74;100.00;97887.72;5080549;28;19948;-73
2023/05/07 01:07:05;;;;;;;;;;;;;;;18.86;100.00;97896.03;5072929;28;19967;-73
2023/05/07 01:09:32;;;;;;;;;;;;;;;18.93;100.00;97890.16;5083400;28;19935;-73
2023/05/07 01:11:59;;;;;;;;;;;;;;;18.90;100.00;97884.56;5083333;28;19924;-73
2023/05/07 01:14:26;;;;;;;;;;;;;;;18.97;100.00;97893.03;5079508;28;20535;-72
2023/05/07 01:16:54;;;;;;;;;;;;;;;18.98;100.00;97891.88;5078849;28;19921;-73
2023/05/07 01:19:21;;;;;;;;;;;;;;;18.99;100.00;97888.06;5082753;28;19925;-72
2023/05/07 01:21:48;;;;;;;;;;;;;;;18.95;100.00;97885.19;5082910;28;19964;-74
2023/05/07 01:24:16;;;;;;;;;;;;;;;18.97;100.00;97893.78;5080548;28;19936;-73
2023/05/07 01:26:42;;;;;;;;;;;;;;;18.94;100.00;97899.06;5079364;28;20524;-73
2023/05/07 01:29:09;;;;;;;;;;;;;;;18.99;100.00;97898.91;5079530;28;19971;-73
2023/05/07 01:31:37;;;;;;;;;;;;;;;18.94;100.00;97891.72;5082750;28;19940;-72
2023/05/07 01:34:04;;;;;;;;;;;;;;;18.92;100.00;97883.13;5082924;28;19924;-74
2023/05/07 01:36:32;;;;;;;;;;;;;;;18.90;100.00;97882.66;5071270;28;19988;-71
2023/05/07 01:38:59;;;;;;;;;;;;;;;18.92;100.00;97883.13;5080147;28;19932;-72
2023/05/07 01:41:27;;;;;;;;;;;;;;;18.91;100.00;97878.06;5083143;28;19924;-72
2023/05/07 01:43:55;;;;;;;;;;;;;;;18.87;100.00;97880.59;5083122;28;19988;-73
2023/05/07 01:46:22;;;;;;;;;;;;;;;18.90;100.00;97876.44;5079746;28;20015;-72
2023/05/07 01:48:48;;;;;;;;;;;;;;;18.90;100.00;97881.84;5079423;28;19991;-73
2023/05/07 01:51:15;;;;;;;;;;;;;;;18.86;100.00;97881.69;5082630;28;19952;-72
2023/05/07 01:53:43;;;;;;;;;;;;;;;18.88;100.00;97882.16;5083051;28;20316;-72
2023/05/07 01:56:09;;;;;;;;;;;;;;;18.86;100.00;97885.19;5081743;28;19951;-72
2023/05/07 01:58:37;;;;;;;;;;;;;;;18.86;100.00;97881.69;5080128;28;19984;-72
2023/05/07 02:01:03;;;;;;;;;;;;;;;18.88;100.00;97881.38;5080024;28;19994;-72
2023/05/07 02:03:30;;;;;;;;;;;;;;;18.85;100.00;97886.31;5082559;28;19924;-72
2023/05/07 02:05:56;;;;;;;;;;;;;;;18.74;100.00;97889.63;5074179;28;19934;-72
2023/05/07 02:08:23;;;;;;;;;;;;;;;18.69;100.00;97889.81;5079082;28;19984;-72
2023/05/07 02:10:49;;;;;;;;;;;;;;;18.68;100.00;97889.00;5079196;28;19984;-72
2023/05/07 02:13:16;;;;;;;;;;;;;;;18.69;100.00;97890.56;5081205;28;19997;-72
2023/05/07 02:15:46;;;;;;;;;;;;;;;18.70;100.00;97894.06;5082229;28;19920;-71
2023/05/07 02:18:13;;;;;;;;;;;;;;;18.70;100.00;97892.16;5080363;28;19987;-73
2023/05/07 02:20:39;;;;;;;;;;;;;;;18.71;100.00;97890.28;5079103;28;19992;-72
2023/05/07 02:23:05;;;;;;;;;;;;;;;18.68;100.00;97889.00;5080334;28;19925;-71
2023/05/07 02:25:32;;;;;;;;;;;;;;;18.68;100.00;97888.19;5082330;28;20019;-71
2023/05/07 02:27:58;;;;;;;;;;;;;;;18.61;100.00;97885.16;5081990;28;19987;-71
2023/05/07 02:30:25;;;;;;;;;;;;;;;18.39;100.00;97888.72;5077523;28;19939;-72
2023/05/07 02:32:53;;;;;;;;;;;;;;;18.24;100.00;97887.25;5078563;28;19925;-72
2023/05/07 02:35:19;;;;;;;;;;;;;;;18.22;100.00;97886.78;5077205;28;19935;-71
2023/05/07 02:37:46;;;;;;;;;;;;;;;18.31;100.00;97890.31;5077160;28;20019;-71
2023/05/07 02:40:12;;;;;;;;;;;;;;;18.20;100.00;97888.19;5079012;28;19931;-71
2023/05/07 02:42:39;;;;;;;;;;;;;;;17.90;100.00;97884.41;5078672;28;19925;-72
2023/05/07 02:45:05;;;;;;;;;;;;;;;17.92;100.00;97878.72;5079801;28;19929;-71
2023/05/07 02:47:32;;;;;;;;;;;;;;;18.05;100.00;97881.28;5081549;28;19963;-71
2023/05/07 02:50:00;;;;;;;;;;;;;;;18.09;100.00;97879.56;5080242;28;19992;-71
2023/05/07 02:52:26;;;;;;;;;;;;;;;18.29;100.00;97875.47;5078123;28;19932;-72
2023/05/07 02:54:52;;;;;;;;;;;;;;;18.32;100.00;97872.16;5078412;28;19978;-72
2023/05/07 02:57:19;;;;;;;;;;;;;;;18.33;100.00;97877.25;5081008;28;19966;-72
2023/05/07 02:59:45;;;;;;;;;;;;;;;18.37;100.00;97872.03;5081651;28;19928;-72
2023/05/07 03:02:11;;;;;;;;;;;;;;;18.41;100.00;97866.78;5078340;28;19925;-72
2023/05/07 03:04:38;;;;;;;;;;;;;;;18.42;100.00;97858.34;5078278;28;20003;-72
2023/05/07 03:07:05;;;;;;;;;;;;;;;18.41;100.00;97866.78;5070694;28;19980;-72
2023/05/07 03:09:32;;;;;;;;;;;;;;;18.39;100.00;97866.28;5081577;28;19984;-72
2023/05/07 03:11:58;;;;;;;;;;;;;;;18.41;100.00;97866.78;5081540;28;19980;-73
2023/05/07 03:14:25;;;;;;;;;;;;;;;18.41;100.00;97866.78;5076657;28;19925;-72
2023/05/07 03:16:51;;;;;;;;;;;;;;;18.41;100.00;97864.09;5077948;28;19924;-73
2023/05/07 03:19:18;;;;;;;;;;;;;;;18.41;100.00;97872.19;5080452;28;19987;-72
2023/05/07 03:21:44;;;;;;;;;;;;;;;18.37;100.00;97871.22;5080030;28;19932;-72
2023/05/07 03:24:12;;;;;;;;;;;;;;;18.38;100.00;97873.63;5079182;28;19924;-72
2023/05/07 03:26:38;;;;;;;;;;;;;;;18.33;100.00;97881.88;5076445;28;19936;-72
2023/05/07 03:29:05;;;;;;;;;;;;;;;18.26;100.00;97868.00;5078781;28;19960;-72
2023/05/07 03:31:31;;;;;;;;;;;;;;;18.27;100.00;97872.31;5081174;28;19931;-72
2023/05/07 03:33:58;;;;;;;;;;;;;;;18.27;100.00;97873.13;5079944;28;19991;-72
2023/05/07 03:36:26;;;;;;;;;;;;;;;18.29;100.00;97862.78;5069392;28;20091;-72
2023/05/07 03:38:52;;;;;;;;;;;;;;;18.30;100.00;97872.47;5080565;28;19928;-72
2023/05/07 03:41:20;;;;;;;;;;;;;;;18.28;100.00;97869.31;5080399;28;19992;-72
2023/05/07 03:43:46;;;;;;;;;;;;;;;18.31;100.00;97873.28;5081124;28;19975;-73
2023/05/07 03:46:13;;;;;;;;;;;;;;;18.32;100.00;97878.38;5078766;28;19992;-73
2023/05/07 03:48:39;;;;;;;;;;;;;;;18.32;100.00;97874.84;5077563;28;19925;-73
2023/05/07 03:51:06;;;;;;;;;;;;;;;18.33;100.00;97884.56;5078523;28;19935;-73
2023/05/07 03:53:32;;;;;;;;;;;;;;;18.33;100.00;97882.66;5080776;28;19996;-73
2023/05/07 03:55:58;;;;;;;;;;;;;;;18.28;100.00;97885.53;5080401;28;19931;-73
2023/05/07 03:58:26;;;;;;;;;;;;;;;18.26;100.00;97881.50;5077256;28;19988;-73
2023/05/07 04:00:52;;;;;;;;;;;;;;;18.25;100.00;97888.84;5079215;28;19984;-73
2023/05/07 04:03:19;;;;;;;;;;;;;;;18.22;100.00;97892.19;5084304;28;19924;-73
2023/05/07 04:05:45;;;;;;;;;;;;;;;18.25;100.00;97898.88;5076999;28;19947;-73
2023/05/07 04:08:11;;;;;;;;;;;;;;;18.12;100.00;97903.25;5081332;28;19952;-73
2023/05/07 04:10:38;;;;;;;;;;;;;;;18.04;100.00;97901.31;5081059;28;19925;-72
2023/05/07 04:13:04;;;;;;;;;;;;;;;17.87;100.00;97906.63;5082226;28;20019;-72
2023/05/07 04:15:32;;;;;;;;;;;;;;;17.76;100.00;97905.31;5084588;28;19931;-72
2023/05/07 04:17:58;;;;;;;;;;;;;;;17.86;100.00;97910.44;5083415;28;19920;-72
2023/05/07 04:20:24;;;;;;;;;;;;;;;17.94;100.00;97907.00;5081198;28;19951;-72
2023/05/07 04:22:51;;;;;;;;;;;;;;;18.01;100.00;97910.03;5081110;28;19925;-72
2023/05/07 04:25:17;;;;;;;;;;;;;;;18.05;100.00;97908.31;5083405;28;20027;-72
2023/05/07 04:27:43;;;;;;;;;;;;;;;18.06;100.00;97906.41;5084411;28;19925;-72
2023/05/07 04:30:11;;;;;;;;;;;;;;;18.02;100.00;97908.13;5082774;28;19959;-73
2023/05/07 04:32:38;;;;;;;;;;;;;;;17.83;100.00;97916.47;5081116;28;19943;-72
2023/05/07 04:35:05;;;;;;;;;;;;;;;17.83;100.00;97908.34;5081175;28;19964;-72
2023/05/07 04:37:32;;;;;;;;;;;;;;;17.95;100.00;97916.69;5077369;28;19991;-72
2023/05/07 04:39:59;;;;;;;;;;;;;;;17.82;100.00;97914.09;5084143;28;19968;-72
2023/05/07 04:42:25;;;;;;;;;;;;;;;17.67;100.00;97917.97;5081039;28;19925;-72
2023/05/07 04:44:53;;;;;;;;;;;;;;;17.64;100.00;97913.97;5080684;28;19992;-72
2023/05/07 04:47:19;;;;;;;;;;;;;;;17.74;100.00;97913.72;5083608;28;19963;-72
2023/05/07 04:49:47;;;;;;;;;;;;;;;17.80;100.00;97917.88;5084581;28;19931;-72
2023/05/07 04:52:13;;;;;;;;;;;;;;;17.92;100.00;97920.00;5082651;28;19958;-72
2023/05/07 04:54:40;;;;;;;;;;;;;;;17.93;100.00;97921.59;5081618;28;19960;-72
2023/05/07 04:57:06;;;;;;;;;;;;;;;17.86;100.00;97931.28;5082449;28;19947;-72
2023/05/07 04:59:33;;;;;;;;;;;;;;;17.64;100.00;97927.47;5084253;28;20092;-72
2023/05/07 05:01:59;;;;;;;;;;;;;;;17.80;100.00;97922.47;5084019;28;19986;-72
2023/05/07 05:04:25;;;;;;;;;;;;;;;17.86;100.00;97923.94;5080958;28;19996;-72
2023/05/07 05:06:53;;;;;;;;;;;;;;;17.84;100.00;97939.69;5072296;28;19925;-72
2023/05/07 05:09:20;;;;;;;;;;;;;;;17.92;100.00;97936.22;5083682;28;20303;-72
2023/05/07 05:11:46;;;;;;;;;;;;;;;17.95;100.00;97930.19;5083123;28;19925;-72
2023/05/07 05:14:12;;;;;;;;;;;;;;;18.03;100.00;97939.47;5081948;28;19976;-72
2023/05/07 05:16:39;;;;;;;;;;;;;;;18.09;100.00;97941.72;5080082;28;19925;-72
2023/05/07 05:19:05;;;;;;;;;;;;;;;18.08;100.00;97937.41;5081201;28;20474;-72
2023/05/07 05:21:32;;;;;;;;;;;;;;;18.04;100.00;97949.19;5083498;28;19984;-72
2023/05/07 05:23:59;;;;;;;;;;;;;;;17.86;100.00;97947.50;5083444;28;19931;-72
2023/05/07 05:26:26;;;;;;;;;;;;;;;17.61;100.00;97948.88;5080007;28;19951;-72
2023/05/07 05:28:52;;;;;;;;;;;;;;;17.64;100.00;97951.00;5080236;28;19952;-72
2023/05/07 05:31:18;;;;;;;;;;;;;;;17.46;100.00;97950.03;5082667;28;19975;-72
2023/05/07 05:33:45;;;;;;;;;;;;;;;17.59;100.00;97948.41;5083361;28;20396;-72
2023/05/07 05:36:12;;;;;;;;;;;;;;;17.60;100.00;97948.13;5073064;28;19936;-72
2023/05/07 05:38:39;;;;;;;;;;;;;;;17.52;100.00;97953.41;5079749;28;19947;-72
2023/05/07 05:41:07;;;;;;;;;;;;;;;17.60;100.00;97961.63;5080465;28;19925;-72
2023/05/07 05:43:33;;;;;;;;;;;;;;;17.79;100.00;97953.31;5082969;28;19987;-71
2023/05/07 05:46:00;;;;;;;;;;;;;;;17.94;100.00;97950.22;5082777;28;19992;-72
2023/05/07 05:48:26;;;;;;;;;;;;;;;18.14;100.00;97949.69;5079449;28;19944;-72
2023/05/07 05:50:53;;;;;;;;;;;;;;;18.40;100.00;97935.50;5079447;28;19921;-73
2023/05/07 05:53:19;;;;;;;;;;;;;;;18.16;100.00;97947.50;5081155;28;19952;-73
2023/05/07 05:55:45;;;;;;;;;;;;;;;18.43;100.00;97945.69;5083075;28;20011;-73
2023/05/07 05:58:14;;;;;;;;;;;;;;;18.22;100.00;97940.03;5081010;28;19924;-72
2023/05/07 06:00:41;;;;;;;;;;;;;;;18.50;100.00;97935.25;5078231;28;19925;-72
2023/05/07 06:03:07;;;;;;;;;;;;;;;18.75;100.00;97943.41;5080392;28;19964;-73
2023/05/07 06:05:33;;;;;;;;;;;;;;;18.99;100.00;97940.28;5077889;28;19936;-73
2023/05/07 06:08:00;;;;;;;;;;;;;;;19.26;100.00;97939.19;5079276;28;19924;-73
2023/05/07 06:10:27;;;;;;;;;;;;;;;19.29;100.00;97952.91;5078971;28;19925;-73
2023/05/07 06:12:53;;;;;;;;;;;;;;;19.37;100.00;97948.63;5078972;28;20365;-73
2023/05/07 06:15:21;;;;;;;;;;;;;;;19.56;100.00;97946.38;5081910;28;19924;-73
2023/05/07 06:17:47;;;;;;;;;;;;;;;19.63;100.00;97951.31;5082693;28;19987;-73
2023/05/07 06:20:13;;;;;;;;;;;;;;;19.48;100.00;97958.03;5080205;28;20007;-73
2023/05/07 06:22:40;;;;;;;;;;;;;;;19.68;100.00;97954.66;5078221;28;20035;-73
2023/05/07 06:25:07;;;;;;;;;;;;;;;19.91;100.00;97968.81;5080100;28;19995;-72
2023/05/07 06:27:33;;;;;;;;;;;;;;;19.55;100.00;97966.47;5081241;28;19921;-73
2023/05/07 06:30:00;;;;;;;;;;;;;;;19.50;100.00;97963.13;5080649;28;19934;-72
2023/05/07 06:32:27;;;;;;;;;;;;;;;19.62;100.00;97972.19;5078552;28;20509;-72
2023/05/07 06:34:54;;;;;;;;;;;;;;;19.73;100.00;97969.97;5077263;28;20019;-72
2023/05/07 06:37:20;;;;;;;;;;;;;;;19.77;100.00;97968.22;5073463;28;19924;-72
2023/05/07 06:39:46;;;;;;;;;;;;;;;20.00;100.00;97972.31;5082142;28;19931;-73
2023/05/07 06:42:13;;;;;;;;;;;;;;;20.07;100.00;97985.38;5080027;28;20266;-73
2023/05/07 06:44:39;;;;;;;;;;;;;;;20.03;100.00;97987.13;5078225;28;19996;-73
2023/05/07 06:47:06;;;;;;;;;;;;;;;19.87;100.00;97982.22;5078379;28;20012;-73
2023/05/07 06:49:33;;;;;;;;;;;;;;;20.22;100.00;97982.94;5081910;28;19924;-73
2023/05/07 06:52:00;;;;;;;;;;;;;;;20.42;100.00;97984.19;5081850;28;19925;-73
2023/05/07 06:54:26;;;;;;;;;;;;;;;20.74;100.00;97988.97;5078561;28;19969;-73
2023/05/07 06:56:52;;;;;;;;;;;;;;;20.83;100.00;97999.78;5078494;28;19921;-73
2023/05/07 06:59:20;;;;;;;;;;;;;;;20.69;100.00;97991.91;5081386;28;19929;-73
2023/05/07 07:01:46;;;;;;;;;;;;;;;20.88;100.00;97988.78;5080797;28;19931;-72
2023/05/07 07:04:12;;;;;;;;;;;;;;;20.78;100.00;97981.78;5079547;28;19990;-72
2023/05/07 07:06:40;;;;;;;;;;;;;;;20.67;100.00;97979.78;5068489;28;19929;-73
2023/05/07 07:09:07;;;;;;;;;;;;;;;20.36;100.00;97975.41;5091724;28;19964;-72
2023/05/07 07:11:33;;;;;;;;;;;;;;;20.32;100.00;97979.13;5078052;28;19972;-72
2023/05/07 07:13:59;;;;;;;;;;;;;;;20.21;100.00;97984.03;5078411;28;20414;-72
2023/05/07 07:16:26;;;;;;;;;;;;;;;20.08;100.00;97981.56;5080332;28;19935;-72
2023/05/07 07:18:52;;;;;;;;;;;;;;;20.01;100.00;97983.94;5080161;28;19948;-72
2023/05/07 07:21:18;;;;;;;;;;;;;;;20.08;100.00;97985.06;5077353;28;20410;-73
2023/05/07 07:23:46;;;;;;;;;;;;;;;20.29;100.00;97979.75;5076900;28;19924;-72
2023/05/07 07:26:12;;;;;;;;;;;;;;;20.27;100.00;97974.66;5080261;28;19976;-73
2023/05/07 07:28:43;;;;;;;;;;;;;;;20.20;100.00;97976.25;5081309;28;19935;-73
2023/05/07 07:31:09;;;;;;;;;;;;;;;20.30;100.00;97976.72;5079983;28;19935;-73
2023/05/07 07:33:36;;;;;;;;;;;;;;;20.03;100.00;97985.22;5078068;28;19928;-73
2023/05/07 07:36:02;;;;;;;;;;;;;;;19.93;100.00;97985.53;5074718;28;20377;-73
2023/05/07 07:38:29;;;;;;;;;;;;;;;20.12;100.00;97986.00;5077474;28;20082;-72
2023/05/07 07:40:56;;;;;;;;;;;;;;;20.12;100.00;97985.19;5077644;28;19929;-72
2023/05/07 07:43:23;;;;;;;;;;;;;;;20.00;100.00;97985.84;5081496;28;19920;-73
2023/05/07 07:45:49;;;;;;;;;;;;;;;19.84;100.00;97987.47;5081327;28;19959;-72
2023/05/07 07:48:15;;;;;;;;;;;;;;;19.69;100.00;97983.34;5079189;28;19974;-74
2023/05/07 07:50:42;;;;;;;;;;;;;;;19.65;100.00;97981.63;5079261;28;20014;-72
2023/05/07 07:53:08;;;;;;;;;;;;;;;19.72;100.00;97981.91;5080696;28;19932;-73
2023/05/07 07:55:38;;;;;;;;;;;;;;;19.90;100.00;97984.28;5083044;28;19920;-74
2023/05/07 07:58:06;;;;;;;;;;;;;;;19.94;100.00;97979.00;5081589;28;19925;-71
2023/05/07 08:00:33;;;;;;;;;;;;;;;20.11;100.00;97979.00;5078088;28;19984;-71
2023/05/07 08:03:00;;;;;;;;;;;;;;;20.32;100.00;97977.22;5077760;28;19929;-69
2023/05/07 08:05:26;;;;;;;;;;;;;;;20.10;100.00;97980.09;5077082;28;20000;-70
2023/05/07 08:07:53;;;;;;;;;;;;;;;20.26;100.00;97975.00;5076574;28;19928;-69
2023/05/07 08:10:21;;;;;;;;;;;;;;;20.10;100.00;97974.69;5077885;28;19974;-70
2023/05/07 08:12:47;;;;;;;;;;;;;;;20.13;100.00;97965.09;5076955;28;19932;-73
2023/05/07 08:15:15;;;;;;;;;;;;;;;20.30;100.00;97971.28;5078961;28;20401;-68
2023/05/07 08:17:42;;;;;;;;;;;;;;;20.13;100.00;97970.53;5080365;28;19925;-69
2023/05/07 08:20:08;;;;;;;;;;;;;;;20.01;100.00;97973.09;5078898;28;19978;-69
2023/05/07 08:22:35;;;;;;;;;;;;;;;20.19;100.00;97975.44;5076937;28;19925;-70
2023/05/07 08:25:01;;;;;;;;;;;;;;;20.26;100.00;97986.63;5077319;28;20027;-69
2023/05/07 08:27:28;;;;;;;;;;;;;;;20.04;100.00;97989.53;5080284;28;19988;-72
2023/05/07 08:29:54;;;;;;;;;;;;;;;19.83;100.00;97994.84;5080183;28;19970;-69
2023/05/07 08:32:22;;;;;;;;;;;;;;;19.87;100.00;97989.53;5077023;28;19925;-68
2023/05/07 08:34:48;;;;;;;;;;;;;;;19.77;100.00;97995.31;5076707;28;19960;-68
2023/05/07 08:37:15;;;;;;;;;;;;;;;19.97;100.00;97994.63;5070748;28;20015;-69
2023/05/07 08:39:41;;;;;;;;;;;;;;;19.84;100.00;97999.13;5080119;28;19946;-68
2023/05/07 08:42:10;;;;;;;;;;;;;;;19.59;100.00;97999.16;5078585;28;19920;-67
2023/05/07 08:44:39;;;;;;;;;;;;;;;19.70;100.00;97997.69;5076539;28;19995;-69
2023/05/07 08:47:07;;;;;;;;;;;;;;;20.00;100.00;97999.41;5079388;28;20305;-70
2023/05/07 08:49:35;;;;;;;;;;;;;;;19.77;100.00;98003.44;5083866;28;19924;-71
2023/05/07 08:52:02;;;;;;;;;;;;;;;19.83;100.00;98002.16;5082080;28;19959;-70
2023/05/07 08:54:29;;;;;;;;;;;;;;;19.95;100.00;97996.88;5080410;28;19928;-72
2023/05/07 08:56:55;;;;;;;;;;;;;;;20.05;100.00;97991.13;5079331;28;19956;-70
2023/05/07 08:59:21;;;;;;;;;;;;;;;20.09;100.00;97992.06;5082105;28;19924;-69
2023/05/07 09:01:48;;;;;;;;;;;;;;;19.95;100.00;97994.16;5083624;28;19925;-69
2023/05/07 09:04:14;;;;;;;;;;;;;;;20.06;100.00;98000.03;5081441;28;19963;-71
2023/05/07 09:06:42;;;;;;;;;;;;;;;20.14;100.00;98008.19;5071881;28;19924;-71
2023/05/07 09:09:08;;;;;;;;;;;;;;;20.22;100.00;98011.97;5081897;28;19995;-70
2023/05/07 09:11:35;;;;;;;;;;;;;;;20.07;100.00;97998.94;5082269;28;19924;-73
2023/05/07 09:14:02;;;;;;;;;;;;;;;20.01;100.00;98006.44;5082286;28;19920;-73
2023/05/07 09:16:29;;;;;;;;;;;;;;;20.06;100.00;98006.25;5079323;28;20332;-73
2023/05/07 09:18:56;;;;;;;;;;;;;;;20.15;100.00;98001.63;5079490;28;19924;-72
2023/05/07 09:21:22;;;;;;;;;;;;;;;20.15;100.00;97998.91;5083564;28;19963;-74
2023/05/07 09:23:51;;;;;;;;;;;;;;;19.88;100.00;97994.66;5082625;28;19932;-77
2023/05/07 09:26:17;;;;;;;;;;;;;;;20.02;100.00;97993.69;5079815;28;19950;-73
2023/05/07 09:28:44;;;;;;;;;;;;;;;19.97;100.00;97994.63;5080182;28;19931;-72
2023/05/07 09:31:11;;;;;;;;;;;;;;;20.27;100.00;98001.00;5081424;28;20345;-71
2023/05/07 09:33:37;;;;;;;;;;;;;;;20.29;100.00;97996.03;5081823;28;19960;-73
2023/05/07 09:36:04;;;;;;;;;;;;;;;20.33;100.00;98000.47;5072922;28;19971;-70
2023/05/07 09:38:31;;;;;;;;;;;;;;;20.16;100.00;97994.28;5079694;28;19924;-73
2023/05/07 09:41:05;;;;;;;;;;;;;;;20.18;100.00;97995.53;5079520;28;20721;-72
2023/05/07 09:43:34;;;;;;;;;;;;;;;20.35;100.00;97998.25;5071247;28;19984;-71
2023/05/07 09:46:01;;;;;;;;;;;;;;;20.49;100.00;97989.13;5079747;28;19931;-72
2023/05/07 09:48:28;;;;;;;;;;;;;;;20.81;100.00;97978.41;5082929;28;20613;-72
2023/05/07 09:50:58;;;;;;;;;;;;;;;20.99;100.00;97981.81;5082942;28;19956;-71
2023/05/07 09:53:25;;;;;;;;;;;;;;;21.01;100.00;97974.94;5079092;28;19985;-70
2023/05/07 09:55:51;;;;;;;;;;;;;;;20.94;100.00;97974.69;5086476;28;19946;-69
2023/05/07 09:58:19;;;;;;;;;;;;;;;20.93;100.00;97978.50;5079701;28;19963;-70
2023/05/07 10:00:46;;;;;;;;;;;;;;;21.08;100.00;97971.72;5079142;28;19924;-70
2023/05/07 10:03:14;;;;;;;;;;;;;;;20.98;100.00;97977.53;5080970;28;19925;-70
2023/05/07 10:05:40;;;;;;;;;;;;;;;20.99;100.00;97973.69;5075187;28;19952;-71
2023/05/07 10:08:07;;;;;;;;;;;;;;;21.13;100.00;97974.28;5085748;28;19960;-72
2023/05/07 10:10:34;;;;;;;;;;;;;;;21.36;100.00;97986.41;5078988;28;19924;-71
2023/05/07 10:13:02;;;;;;;;;;;;;;;21.36;100.00;97974.72;5078833;28;20004;-72
2023/05/07 10:15:30;;;;;;;;;;;;;;;21.37;100.00;97968.97;5082327;28;20032;-71
2023/05/07 10:17:56;;;;;;;;;;;;;;;21.34;100.00;97977.00;5082747;28;20011;-72
2023/05/07 10:20:23;;;;;;;;;;;;;;;21.47;100.00;97976.75;5078624;28;19921;-71
2023/05/07 10:22:51;;;;;;;;;;;;;;;21.51;100.00;97983.09;5078695;28;19929;-72
2023/05/07 10:25:19;;;;;;;;;;;;;;;21.63;100.00;97976.94;5081066;28;19987;-70
2023/05/07 10:27:47;;;;;;;;;;;;;;;21.76;100.00;97977.75;5081989;28;19925;-70
2023/05/07 10:30:22;;;;;;;;;;;;;;;21.89;100.00;97982.94;5078159;28;19947;-71
2023/05/07 10:32:52;;;;;;;;;;;;;;;22.03;100.00;97982.66;5076633;28;19931;-70
2023/05/07 10:35:20;;;;;;;;;;;;;;;21.85;100.00;97981.22;5077867;28;19925;-70
2023/05/07 10:37:47;;;;;;;;;;;;;;;22.05;100.00;97978.47;5076275;28;19924;-72
2023/05/07 10:40:14;;;;;;;;;;;;;;;21.97;100.00;97975.84;5079178;28;19924;-70
2023/05/07 10:42:53;;;;;;;;;;;;;;;22.07;100.00;97969.97;5077556;28;19992;-70
2023/05/07 10:45:20;;;;;;;;;;;;;;;22.00;100.00;97970.50;5080498;28;19924;-70
2023/05/07 10:48:05;;;;;;;;;;;;;;;21.79;94.66;97975.16;5080900;28;19959;-71
2023/05/07 10:50:32;;;;;;;;;;;;;;;21.69;94.14;97961.22;5069548;28;20371;-71
2023/05/07 10:53:18;;;;;;;;;;;;;;;21.69;97.83;97961.22;5081246;28;19935;-72
2023/05/07 10:55:47;;;;;;;;;;;;;;;21.84;99.69;97960.59;5080328;28;21245;-70
2023/05/07 10:58:28;;;;;;;;;;;;;;;21.83;100.00;97964.44;5077646;28;19963;-72
2023/05/07 11:00:58;;;;;;;;;;;;;;;22.24;100.00;97964.34;5076514;28;20007;-71
2023/05/07 11:03:24;;;;;;;;;;;;;;;22.27;92.91;97960.16;5078513;28;19951;-71
2023/05/07 11:06:09;;;;;;;;;;;;;;;22.13;96.06;97951.53;5079426;28;19929;-72
2023/05/07 11:08:50;;;;;;;;;;;;;;;22.00;93.61;97956.13;5076066;28;19960;-71
2023/05/07 11:11:17;;;;;;;;;;;;;;;21.94;95.14;97947.38;5080335;28;19925;-70
2023/05/07 11:13:44;;;;;;;;;;;;;;;21.78;96.67;97953.78;5078042;28;19970;-69
2023/05/07 11:16:20;;;;;;;;;;;;;;;21.81;95.43;97955.81;5079494;28;20101;-70
2023/05/07 11:18:47;;;;;;;;;;;;;;;21.71;93.22;97958.94;5080251;28;19924;-70
2023/05/07 11:21:32;;;;;;;;;;;;;;;21.69;92.48;97939.47;5078921;28;19978;-69
2023/05/07 11:23:59;;;;;;;;;;;;;;;21.96;95.50;97947.06;5077944;28;19925;-70
2023/05/07 11:26:26;;;;;;;;;;;;;;;22.19;94.86;97947.47;5077607;28;19929;-71
2023/05/07 11:28:53;;;;;;;;;;;;;;;22.30;86.84;97946.69;5077517;28;19924;-72
2023/05/07 11:31:22;;;;;;;;;;;;;;;22.27;86.72;97950.06;5080018;28;20001;-70
2023/05/07 11:33:48;;;;;;;;;;;;;;;22.04;84.16;97946.16;5080534;28;19924;-71
2023/05/07 11:36:16;;;;;;;;;;;;;;;22.12;84.89;97941.78;5068651;28;19925;-70
2023/05/07 11:38:42;;;;;;;;;;;;;;;22.00;83.41;97942.53;5077456;28;19964;-69
2023/05/07 11:41:09;;;;;;;;;;;;;;;22.07;87.15;97948.22;5078406;28;19947;-71
2023/05/07 11:43:36;;;;;;;;;;;;;;;22.23;91.94;97946.44;5080752;28;20433;-70
2023/05/07 11:46:06;;;;;;;;;;;;;;;22.25;95.89;97946.09;5078981;28;19925;-70
2023/05/07 11:48:33;;;;;;;;;;;;;;;22.35;96.90;97945.66;5077265;28;19928;-72
2023/05/07 11:51:01;;;;;;;;;;;;;;;22.32;97.79;97947.13;5077385;28;19931;-70
2023/05/07 11:53:35;;;;;;;;;;;;;;;22.42;94.49;97945.88;5080946;28;19955;-70
2023/05/07 11:56:06;;;;;;;;;;;;;;;22.47;93.07;97940.22;5080246;28;19929;-72
2023/05/07 11:58:33;;;;;;;;;;;;;;;22.41;95.81;97945.09;5077283;28;19940;-70
2023/05/07 12:00:59;;;;;;;;;;;;;;;22.36;97.75;97942.59;5077393;28;19955;-69
2023/05/07 12:03:25;;;;;;;;;;;;;;;22.51;92.77;97944.66;5080862;28;19987;-71
2023/05/07 12:05:52;;;;;;;;;;;;;;;22.33;96.41;97942.47;5073276;28;19936;-69
2023/05/07 12:08:19;;;;;;;;;;;;;;;22.46;93.78;97949.53;5077491;28;19952;-70
2023/05/07 12:10:48;;;;;;;;;;;;;;;22.39;94.26;97947.38;5077355;28;19920;-70
2023/05/07 12:13:15;;;;;;;;;;;;;;;22.54;92.16;97949.41;5079215;28;19932;-69
2023/05/07 12:15:41;;;;;;;;;;;;;;;22.71;88.22;97947.63;5081207;28;19928;-70
2023/05/07 12:18:07;;;;;;;;;;;;;;;22.77;90.61;97941.63;5079515;28;19988;-69
2023/05/07 12:20:35;;;;;;;;;;;;;;;22.59;92.34;97942.97;5077843;28;19971;-69
2023/05/07 12:23:01;;;;;;;;;;;;;;;22.66;89.65;97937.75;5082476;28;20499;-71
2023/05/07 12:25:30;;;;;;;;;;;;;;;22.60;87.86;97937.16;5084089;28;19920;-68
2023/05/07 12:27:58;;;;;;;;;;;;;;;22.61;82.49;97929.81;5084998;28;19924;-69
2023/05/07 12:30:25;;;;;;;;;;;;;;;22.40;91.37;97934.56;5084743;28;19921;-69
2023/05/07 12:32:53;;;;;;;;;;;;;;;22.38;89.93;97951.22;5084013;28;19920;-72
2023/05/07 12:35:26;;;;;;;;;;;;;;;22.39;89.61;97936.47;5084247;28;19928;-70
2023/05/07 12:37:55;;;;;;;;;;;;;;;22.63;88.40;97940.34;5081917;28;19928;-72